sensor_id;sensor_type;location;lat;lon;timestamp;pressure;altitude;pressure_sealevel;temperature;humidity
39223;BME280;24936;46.328;11.026;2022-08-11T00:01:26;94923.59;;;17.22;100.00
39223;BME280;24936;46.328;11.026;2022-08-11T00:04:01;94917.00;;;17.19;100.00
39223;BME280;24936;46.328;11.026;2022-08-11T00:08:53;94916.59;;;17.04;100.00
39223;BME280;24936;46.328;11.026;2022-08-11T00:11:20;94914.06;;;16.97;100.00
39223;BME280;24936;46.328;11.026;2022-08-11T00:13:48;94923.22;;;16.91;100.00
39223;BME280;24936;46.328;11.026;2022-08-11T00:16:20;94920.06;;;16.92;100.00
39223;BME280;24936;46.328;11.026;2022-08-11T00:18:54;94920.63;;;17.00;100.00
39223;BME280;24936;46.328;11.026;2022-08-11T00:21:22;94927.81;;;16.94;100.00
39223;BME280;24936;46.328;11.026;2022-08-11T00:23:59;94929.28;;;16.98;100.00
39223;BME280;24936;46.328;11.026;2022-08-11T00:26:25;94925.88;;;16.94;100.00
39223;BME280;24936;46.328;11.026;2022-08-11T00:28:52;94927.50;;;16.92;100.00
39223;BME280;24936;46.328;11.026;2022-08-11T00:31:28;94922.69;;;16.96;100.00
39223;BME280;24936;46.328;11.026;2022-08-11T00:33:55;94918.59;;;17.04;100.00
39223;BME280;24936;46.328;11.026;2022-08-11T00:36:26;94922.25;;;16.97;100.00
39223;BME280;24936;46.328;11.026;2022-08-11T00:38:54;94927.53;;;17.04;100.00
39223;BME280;24936;46.328;11.026;2022-08-11T00:41:46;94914.91;;;17.11;100.00
39223;BME280;24936;46.328;11.026;2022-08-11T01:00:35;94914.94;;;16.78;100.00
39223;BME280;24936;46.328;11.026;2022-08-11T01:03:17;94919.78;;;16.70;100.00
39223;BME280;24936;46.328;11.026;2022-08-11T01:08:35;94924.44;;;16.73;100.00
39223;BME280;24936;46.328;11.026;2022-08-11T01:39:51;94925.41;;;16.30;100.00
39223;BME280;24936;46.328;11.026;2022-08-11T01:53:37;94934.28;;;16.18;100.00
39223;BME280;24936;46.328;11.026;2022-08-11T01:56:31;94932.31;;;16.35;100.00
39223;BME280;24936;46.328;11.026;2022-08-11T02:13:17;94914.25;;;16.41;100.00
39223;BME280;24936;46.328;11.026;2022-08-11T02:15:53;94916.94;;;16.25;100.00
39223;BME280;24936;46.328;11.026;2022-08-11T02:18:27;94913.03;;;16.26;100.00
39223;BME280;24936;46.328;11.026;2022-08-11T02:21:30;94903.31;;;16.41;100.00
39223;BME280;24936;46.328;11.026;2022-08-11T02:24:27;94894.34;;;16.57;100.00
39223;BME280;24936;46.328;11.026;2022-08-11T02:27:21;94883.69;;;16.79;100.00
39223;BME280;24936;46.328;11.026;2022-08-11T02:30:02;94884.47;;;16.79;100.00
39223;BME280;24936;46.328;11.026;2022-08-11T02:35:48;94889.56;;;16.61;100.00
39223;BME280;24936;46.328;11.026;2022-08-11T02:52:55;94875.31;;;16.53;100.00
39223;BME280;24936;46.328;11.026;2022-08-11T03:00:56;94879.25;;;16.52;100.00
39223;BME280;24936;46.328;11.026;2022-08-11T03:03:34;94877.47;;;16.46;100.00
39223;BME280;24936;46.328;11.026;2022-08-11T03:06:13;94875.94;;;16.45;100.00
39223;BME280;24936;46.328;11.026;2022-08-11T03:09:09;94871.31;;;16.42;100.00
39223;BME280;24936;46.328;11.026;2022-08-11T03:20:56;94873.16;;;16.12;100.00
39223;BME280;24936;46.328;11.026;2022-08-11T03:23:34;94864.22;;;16.28;100.00
39223;BME280;24936;46.328;11.026;2022-08-11T03:28:44;94871.63;;;16.44;100.00
39223;BME280;24936;46.328;11.026;2022-08-11T03:31:26;94875.66;;;16.39;100.00
39223;BME280;24936;46.328;11.026;2022-08-11T03:33:59;94871.41;;;16.38;100.00
39223;BME280;24936;46.328;11.026;2022-08-11T03:59:14;94861.25;;;15.70;100.00
39223;BME280;24936;46.328;11.026;2022-08-11T04:04:57;94869.56;;;15.43;100.00
39223;BME280;24936;46.328;11.026;2022-08-11T04:22:37;94871.06;;;15.27;100.00
39223;BME280;24936;46.328;11.026;2022-08-11T04:28:06;94872.09;;;15.33;100.00
39223;BME280;24936;46.328;11.026;2022-08-11T04:50:36;94864.63;;;15.94;100.00
39223;BME280;24936;46.328;11.026;2022-08-11T04:53:49;94863.09;;;15.93;100.00
39223;BME280;24936;46.328;11.026;2022-08-11T04:56:39;94866.25;;;15.91;100.00
39223;BME280;24936;46.328;11.026;2022-08-11T05:05:14;94868.59;;;16.42;100.00
39223;BME280;24936;46.328;11.026;2022-08-11T05:11:31;94877.44;;;16.62;100.00
39223;BME280;24936;46.328;11.026;2022-08-11T05:13:36;94872.00;;;16.46;100.00
39223;BME280;24936;46.328;11.026;2022-08-11T05:16:31;94862.19;;;16.48;100.00
39223;BME280;24936;46.328;11.026;2022-08-11T05:19:20;94850.66;;;16.57;100.00
39223;BME280;24936;46.328;11.026;2022-08-11T05:22:10;94853.69;;;16.59;100.00
39223;BME280;24936;46.328;11.026;2022-08-11T05:25:33;94848.06;;;16.66;100.00
39223;BME280;24936;46.328;11.026;2022-08-11T05:28:33;94844.81;;;16.71;100.00
39223;BME280;24936;46.328;11.026;2022-08-11T05:31:24;94845.31;;;16.83;100.00
39223;BME280;24936;46.328;11.026;2022-08-11T05:34:41;94842.84;;;16.88;100.00
39223;BME280;24936;46.328;11.026;2022-08-11T05:37:31;94847.59;;;17.00;100.00
39223;BME280;24936;46.328;11.026;2022-08-11T05:40:08;94852.88;;;17.08;100.00
39223;BME280;24936;46.328;11.026;2022-08-11T05:43:01;94836.44;;;16.95;100.00
39223;BME280;24936;46.328;11.026;2022-08-11T05:45:56;94847.59;;;17.00;100.00
39223;BME280;24936;46.328;11.026;2022-08-11T05:48:41;94847.59;;;17.00;100.00
39223;BME280;24936;46.328;11.026;2022-08-11T05:51:36;94843.75;;;16.98;100.00
39223;BME280;24936;46.328;11.026;2022-08-11T05:54:23;94847.84;;;17.06;100.00
39223;BME280;24936;46.328;11.026;2022-08-11T05:57:09;94845.34;;;17.12;100.00
39223;BME280;24936;46.328;11.026;2022-08-11T05:59:43;94848.66;;;17.19;100.00
39223;BME280;24936;46.328;11.026;2022-08-11T06:02:10;94850.53;;;17.22;100.00
39223;BME280;24936;46.328;11.026;2022-08-11T06:04:37;94843.84;;;17.23;100.00
39223;BME280;24936;46.328;11.026;2022-08-11T06:07:08;94846.06;;;17.28;100.00
39223;BME280;24936;46.328;11.026;2022-08-11T06:09:36;94843.66;;;17.30;100.00
39223;BME280;24936;46.328;11.026;2022-08-11T06:12:07;94855.59;;;17.37;100.00
39223;BME280;24936;46.328;11.026;2022-08-11T06:14:33;94846.19;;;17.38;100.00
39223;BME280;24936;46.328;11.026;2022-08-11T06:17:02;94851.25;;;17.52;100.00
39223;BME280;24936;46.328;11.026;2022-08-11T06:19:33;94850.94;;;17.63;100.00
39223;BME280;24936;46.328;11.026;2022-08-11T06:22:01;94844.38;;;17.73;100.00
39223;BME280;24936;46.328;11.026;2022-08-11T06:24:27;94841.00;;;17.82;100.00
39223;BME280;24936;46.328;11.026;2022-08-11T06:26:54;94847.59;;;17.97;100.00
39223;BME280;24936;46.328;11.026;2022-08-11T06:29:21;94838.94;;;18.37;100.00
39223;BME280;24936;46.328;11.026;2022-08-11T06:31:56;94831.88;;;18.48;100.00
39223;BME280;24936;46.328;11.026;2022-08-11T06:42:57;94825.38;;;19.03;100.00
39223;BME280;24936;46.328;11.026;2022-08-11T06:45:36;94826.78;;;19.29;100.00
39223;BME280;24936;46.328;11.026;2022-08-11T06:48:05;94816.06;;;19.22;100.00
39223;BME280;24936;46.328;11.026;2022-08-11T06:50:35;94810.91;;;19.24;100.00
39223;BME280;24936;46.328;11.026;2022-08-11T06:53:20;94815.94;;;19.26;100.00
39223;BME280;24936;46.328;11.026;2022-08-11T06:55:48;94822.78;;;19.43;100.00
39223;BME280;24936;46.328;11.026;2022-08-11T06:58:36;94816.97;;;19.41;100.00
39223;BME280;24936;46.328;11.026;2022-08-11T07:04:12;94816.69;;;19.48;100.00
39223;BME280;24936;46.328;11.026;2022-08-11T07:09:30;94814.25;;;19.72;100.00
39223;BME280;24936;46.328;11.026;2022-08-11T07:15:25;94809.53;;;19.72;100.00
39223;BME280;24936;46.328;11.026;2022-08-11T07:18:16;94803.13;;;19.76;100.00
39223;BME280;24936;46.328;11.026;2022-08-11T07:21:12;94799.22;;;19.86;100.00
39223;BME280;24936;46.328;11.026;2022-08-11T07:24:00;94799.03;;;20.11;100.00
39223;BME280;24936;46.328;11.026;2022-08-11T07:26:50;94796.91;;;20.25;100.00
39223;BME280;24936;46.328;11.026;2022-08-11T07:29:36;94791.75;;;20.27;100.00
39223;BME280;24936;46.328;11.026;2022-08-11T07:32:16;94790.22;;;20.35;100.00
39223;BME280;24936;46.328;11.026;2022-08-11T07:34:50;94785.56;;;20.54;100.00
39223;BME280;24936;46.328;11.026;2022-08-11T07:37:18;94787.38;;;20.66;100.00
39223;BME280;24936;46.328;11.026;2022-08-11T07:39:47;94790.31;;;20.81;100.00
39223;BME280;24936;46.328;11.026;2022-08-11T07:42:15;94786.63;;;21.02;100.00
39223;BME280;24936;46.328;11.026;2022-08-11T07:44:44;94784.94;;;21.23;100.00
39223;BME280;24936;46.328;11.026;2022-08-11T07:47:29;94778.94;;;21.25;100.00
39223;BME280;24936;46.328;11.026;2022-08-11T07:50:14;94787.25;;;21.34;100.00
39223;BME280;24936;46.328;11.026;2022-08-11T07:52:59;94781.78;;;21.67;100.00
39223;BME280;24936;46.328;11.026;2022-08-11T07:55:25;94768.44;;;21.84;100.00
39223;BME280;24936;46.328;11.026;2022-08-11T07:57:52;94767.53;;;21.78;100.00
39223;BME280;24936;46.328;11.026;2022-08-11T08:00:49;94770.91;;;21.73;100.00
39223;BME280;24936;46.328;11.026;2022-08-11T08:03:35;94771.41;;;21.62;100.00
39223;BME280;24936;46.328;11.026;2022-08-11T08:06:20;94760.81;;;21.70;100.00
39223;BME280;24936;46.328;11.026;2022-08-11T08:09:06;94765.03;;;21.89;100.00
39223;BME280;24936;46.328;11.026;2022-08-11T08:11:51;94760.91;;;21.84;100.00
39223;BME280;24936;46.328;11.026;2022-08-11T08:14:36;94765.19;;;21.43;100.00
39223;BME280;24936;46.328;11.026;2022-08-11T08:17:21;94763.31;;;21.58;100.00
39223;BME280;24936;46.328;11.026;2022-08-11T08:20:09;94748.34;;;21.32;100.00
39223;BME280;24936;46.328;11.026;2022-08-11T08:22:35;94741.00;;;21.47;100.00
39223;BME280;24936;46.328;11.026;2022-08-11T08:25:01;94752.56;;;21.70;100.00
39223;BME280;24936;46.328;11.026;2022-08-11T08:27:27;94748.59;;;22.04;100.00
39223;BME280;24936;46.328;11.026;2022-08-11T08:29:54;94748.94;;;22.30;100.00
39223;BME280;24936;46.328;11.026;2022-08-11T08:32:40;94750.03;;;22.47;100.00
39223;BME280;24936;46.328;11.026;2022-08-11T08:35:09;94747.31;;;22.62;100.00
39223;BME280;24936;46.328;11.026;2022-08-11T08:37:35;94734.50;;;23.72;100.00
39223;BME280;24936;46.328;11.026;2022-08-11T08:40:01;94740.34;;;24.09;100.00
39223;BME280;24936;46.328;11.026;2022-08-11T08:42:29;94733.56;;;24.66;100.00
39223;BME280;24936;46.328;11.026;2022-08-11T08:44:58;94727.25;;;24.86;100.00
39223;BME280;24936;46.328;11.026;2022-08-11T08:47:27;94725.38;;;25.49;100.00
39223;BME280;24936;46.328;11.026;2022-08-11T08:49:59;94732.06;;;26.00;100.00
39223;BME280;24936;46.328;11.026;2022-08-11T08:52:28;94729.34;;;26.49;100.00
39223;BME280;24936;46.328;11.026;2022-08-11T08:54:57;94728.88;;;27.50;100.00
39223;BME280;24936;46.328;11.026;2022-08-11T08:57:27;94728.06;;;28.33;100.00
39223;BME280;24936;46.328;11.026;2022-08-11T08:59:57;94727.28;;;29.49;100.00
39223;BME280;24936;46.328;11.026;2022-08-11T09:04:59;94721.88;;;29.27;100.00
39223;BME280;24936;46.328;11.026;2022-08-11T09:07:26;94716.53;;;29.70;100.00
39223;BME280;24936;46.328;11.026;2022-08-11T09:09:54;94710.50;;;30.21;73.36
39223;BME280;24936;46.328;11.026;2022-08-11T09:12:25;94711.50;;;30.23;99.23
39223;BME280;24936;46.328;11.026;2022-08-11T09:14:52;94716.13;;;30.64;73.51
39223;BME280;24936;46.328;11.026;2022-08-11T09:17:37;94709.19;;;29.67;100.00
39223;BME280;24936;46.328;11.026;2022-08-11T09:20:29;94713.44;;;29.74;96.36
39223;BME280;24936;46.328;11.026;2022-08-11T09:22:58;94710.41;;;30.02;100.00
39223;BME280;24936;46.328;11.026;2022-08-11T09:25:44;94709.28;;;29.86;80.74
39223;BME280;24936;46.328;11.026;2022-08-11T09:28:29;94696.66;;;29.79;95.64
39223;BME280;24936;46.328;11.026;2022-08-11T09:30:56;94699.47;;;31.15;87.90
39223;BME280;24936;46.328;11.026;2022-08-11T09:33:23;94696.69;;;31.15;97.82
39223;BME280;24936;46.328;11.026;2022-08-11T09:35:50;94698.63;;;30.39;74.32
39223;BME280;24936;46.328;11.026;2022-08-11T09:38:17;94695.78;;;30.88;85.59
39223;BME280;24936;46.328;11.026;2022-08-11T09:41:05;94693.34;;;30.79;65.50
39223;BME280;24936;46.328;11.026;2022-08-11T09:43:32;94694.41;;;30.02;82.80
39223;BME280;24936;46.328;11.026;2022-08-11T09:46:23;94688.53;;;29.81;93.99
39223;BME280;24936;46.328;11.026;2022-08-11T09:48:50;94689.91;;;30.67;84.30
39223;BME280;24936;46.328;11.026;2022-08-11T09:51:20;94692.06;;;30.37;84.44
39223;BME280;24936;46.328;11.026;2022-08-11T09:53:46;94671.22;;;31.38;70.54
39223;BME280;24936;46.328;11.026;2022-08-11T09:56:20;94673.34;;;30.94;60.56
39223;BME280;24936;46.328;11.026;2022-08-11T09:59:05;94673.56;;;31.34;62.36
39223;BME280;24936;46.328;11.026;2022-08-11T10:01:36;94669.19;;;31.84;63.42
39223;BME280;24936;46.328;11.026;2022-08-11T10:04:12;94666.19;;;30.79;51.13
39223;BME280;24936;46.328;11.026;2022-08-11T10:06:43;94667.84;;;31.58;63.16
39223;BME280;24936;46.328;11.026;2022-08-11T10:09:40;94661.28;;;32.14;78.21
39223;BME280;24936;46.328;11.026;2022-08-11T10:12:12;94657.28;;;31.51;47.57
39223;BME280;24936;46.328;11.026;2022-08-11T10:14:45;94654.44;;;30.62;60.24
39223;BME280;24936;46.328;11.026;2022-08-11T10:17:33;94656.19;;;30.22;65.07
39223;BME280;24936;46.328;11.026;2022-08-11T10:20:01;94647.50;;;32.30;72.28
39223;BME280;24936;46.328;11.026;2022-08-11T10:22:33;94642.22;;;32.26;69.47
39223;BME280;24936;46.328;11.026;2022-08-11T10:25:36;94634.47;;;32.32;41.63
39223;BME280;24936;46.328;11.026;2022-08-11T10:28:21;94628.09;;;32.05;47.44
39223;BME280;24936;46.328;11.026;2022-08-11T10:30:47;94629.44;;;32.44;55.41
39223;BME280;24936;46.328;11.026;2022-08-11T10:33:32;94619.78;;;31.73;59.63
39223;BME280;24936;46.328;11.026;2022-08-11T10:36:18;94610.03;;;31.93;49.58
39223;BME280;24936;46.328;11.026;2022-08-11T10:38:45;94610.03;;;32.33;66.87
39223;BME280;24936;46.328;11.026;2022-08-11T10:41:12;94617.03;;;32.26;60.57
39223;BME280;24936;46.328;11.026;2022-08-11T10:43:57;94612.50;;;32.49;64.37
39223;BME280;24936;46.328;11.026;2022-08-11T10:46:23;94597.03;;;32.83;53.21
39223;BME280;24936;46.328;11.026;2022-08-11T10:49:07;94598.53;;;32.10;46.67
39223;BME280;24936;46.328;11.026;2022-08-11T10:51:33;94591.50;;;31.90;48.35
39223;BME280;24936;46.328;11.026;2022-08-11T10:54:20;94591.84;;;31.99;45.96
39223;BME280;24936;46.328;11.026;2022-08-11T10:57:03;94585.97;;;31.71;52.81
39223;BME280;24936;46.328;11.026;2022-08-11T10:59:48;94595.19;;;31.39;58.38
39223;BME280;24936;46.328;11.026;2022-08-11T11:02:14;94582.34;;;31.76;57.86
39223;BME280;24936;46.328;11.026;2022-08-11T11:07:20;94575.88;;;32.34;60.11
39223;BME280;24936;46.328;11.026;2022-08-11T11:09:57;94575.56;;;31.26;45.68
39223;BME280;24936;46.328;11.026;2022-08-11T11:12:52;94571.03;;;31.68;68.26
39223;BME280;24936;46.328;11.026;2022-08-11T11:15:40;94559.38;;;31.38;48.49
39223;BME280;24936;46.328;11.026;2022-08-11T11:18:33;94562.34;;;32.12;39.15
39223;BME280;24936;46.328;11.026;2022-08-11T11:23:42;94546.94;;;32.18;48.64
39223;BME280;24936;46.328;11.026;2022-08-11T11:29:04;94548.00;;;33.10;53.52
39223;BME280;24936;46.328;11.026;2022-08-11T11:32:05;94540.34;;;32.42;54.02
39223;BME280;24936;46.328;11.026;2022-08-11T11:37:37;94534.09;;;31.30;44.32
39223;BME280;24936;46.328;11.026;2022-08-11T11:40:09;94540.81;;;32.20;53.19
39223;BME280;24936;46.328;11.026;2022-08-11T11:42:36;94525.56;;;33.10;54.01
39223;BME280;24936;46.328;11.026;2022-08-11T11:45:02;94523.44;;;32.48;49.54
39223;BME280;24936;46.328;11.026;2022-08-11T11:47:29;94519.41;;;33.12;59.91
39223;BME280;24936;46.328;11.026;2022-08-11T11:49:56;94528.41;;;33.60;47.75
39223;BME280;24936;46.328;11.026;2022-08-11T11:52:22;94519.69;;;33.00;45.02
39223;BME280;24936;46.328;11.026;2022-08-11T11:54:51;94522.69;;;32.47;43.90
39223;BME280;24936;46.328;11.026;2022-08-11T11:57:19;94510.34;;;32.64;48.80
39223;BME280;24936;46.328;11.026;2022-08-11T12:00:05;94504.13;;;32.10;43.71
39223;BME280;24936;46.328;11.026;2022-08-11T12:02:49;94504.25;;;32.39;50.03
39223;BME280;24936;46.328;11.026;2022-08-11T12:05:16;94499.38;;;32.05;45.71
39223;BME280;24936;46.328;11.026;2022-08-11T12:07:42;94505.41;;;32.57;56.63
39223;BME280;24936;46.328;11.026;2022-08-11T12:10:26;94487.56;;;32.46;48.49
39223;BME280;24936;46.328;11.026;2022-08-11T12:12:52;94487.34;;;32.79;64.82
39223;BME280;24936;46.328;11.026;2022-08-11T12:15:37;94484.16;;;32.40;47.35
39223;BME280;24936;46.328;11.026;2022-08-11T12:18:03;94486.72;;;32.38;45.95
39223;BME280;24936;46.328;11.026;2022-08-11T12:20:30;94471.06;;;32.56;43.61
39223;BME280;24936;46.328;11.026;2022-08-11T12:22:56;94471.09;;;31.95;43.69
39223;BME280;24936;46.328;11.026;2022-08-11T12:25:41;94469.41;;;31.52;50.64
39223;BME280;24936;46.328;11.026;2022-08-11T12:28:27;94466.06;;;31.41;48.91
39223;BME280;24936;46.328;11.026;2022-08-11T12:30:53;94462.16;;;31.84;52.27
39223;BME280;24936;46.328;11.026;2022-08-11T12:33:19;94450.06;;;32.15;54.46
39223;BME280;24936;46.328;11.026;2022-08-11T12:35:47;94446.59;;;31.48;54.84
39223;BME280;24936;46.328;11.026;2022-08-11T12:38:18;94445.16;;;31.28;50.89
39223;BME280;24936;46.328;11.026;2022-08-11T12:40:45;94435.16;;;31.73;52.46
39223;BME280;24936;46.328;11.026;2022-08-11T12:43:31;94435.41;;;31.75;51.95
39223;BME280;24936;46.328;11.026;2022-08-11T12:46:19;94435.72;;;31.58;54.43
39223;BME280;24936;46.328;11.026;2022-08-11T12:48:48;94434.44;;;31.46;52.43
39223;BME280;24936;46.328;11.026;2022-08-11T12:51:37;94435.91;;;31.07;53.00
39223;BME280;24936;46.328;11.026;2022-08-11T12:56:58;94429.38;;;31.18;59.83
39223;BME280;24936;46.328;11.026;2022-08-11T12:59:43;94420.00;;;30.70;58.46
39223;BME280;24936;46.328;11.026;2022-08-11T13:02:28;94408.25;;;30.77;71.73
39223;BME280;24936;46.328;11.026;2022-08-11T13:05:14;94409.78;;;31.04;62.45
39223;BME280;24936;46.328;11.026;2022-08-11T13:07:42;94409.66;;;30.83;61.00
39223;BME280;24936;46.328;11.026;2022-08-11T13:10:10;94405.00;;;30.41;51.75
39223;BME280;24936;46.328;11.026;2022-08-11T13:12:37;94393.44;;;31.08;68.47
39223;BME280;24936;46.328;11.026;2022-08-11T13:15:20;94395.16;;;31.51;71.79
39223;BME280;24936;46.328;11.026;2022-08-11T13:17:51;94391.31;;;31.68;63.96
39223;BME280;24936;46.328;11.026;2022-08-11T13:20:21;94391.84;;;31.26;67.93
39223;BME280;24936;46.328;11.026;2022-08-11T13:22:48;94384.59;;;30.78;62.38
39223;BME280;24936;46.328;11.026;2022-08-11T13:25:16;94384.25;;;30.68;61.16
39223;BME280;24936;46.328;11.026;2022-08-11T13:27:46;94379.16;;;30.99;56.34
39223;BME280;24936;46.328;11.026;2022-08-11T13:30:13;94376.03;;;30.89;64.80
39223;BME280;24936;46.328;11.026;2022-08-11T13:32:59;94363.78;;;30.47;60.05
39223;BME280;24936;46.328;11.026;2022-08-11T13:35:27;94367.06;;;30.64;59.32
39223;BME280;24936;46.328;11.026;2022-08-11T13:37:53;94365.09;;;30.59;64.47
39223;BME280;24936;46.328;11.026;2022-08-11T13:40:24;94366.47;;;30.39;57.40
39223;BME280;24936;46.328;11.026;2022-08-11T13:42:51;94358.88;;;30.66;53.96
39223;BME280;24936;46.328;11.026;2022-08-11T13:45:17;94356.69;;;30.78;68.72
39223;BME280;24936;46.328;11.026;2022-08-11T13:47:44;94352.88;;;30.62;61.70
39223;BME280;24936;46.328;11.026;2022-08-11T13:50:10;94349.38;;;30.10;80.88
39223;BME280;24936;46.328;11.026;2022-08-11T13:52:38;94341.63;;;30.22;70.04
39223;BME280;24936;46.328;11.026;2022-08-11T13:55:09;94340.03;;;30.27;67.08
39223;BME280;24936;46.328;11.026;2022-08-11T13:57:47;94328.38;;;30.55;69.85
39223;BME280;24936;46.328;11.026;2022-08-11T14:00:13;94323.06;;;30.83;63.61
39223;BME280;24936;46.328;11.026;2022-08-11T14:02:43;94329.22;;;30.50;73.93
39223;BME280;24936;46.328;11.026;2022-08-11T14:05:22;94322.00;;;30.41;56.93
39223;BME280;24936;46.328;11.026;2022-08-11T14:07:52;94317.63;;;30.46;63.42
39223;BME280;24936;46.328;11.026;2022-08-11T14:10:20;94316.72;;;30.83;77.33
39223;BME280;24936;46.328;11.026;2022-08-11T14:12:54;94316.38;;;31.26;65.16
39223;BME280;24936;46.328;11.026;2022-08-11T14:15:41;94312.00;;;30.91;53.89
39223;BME280;24936;46.328;11.026;2022-08-11T14:18:16;94312.91;;;30.54;55.85
39223;BME280;24936;46.328;11.026;2022-08-11T14:20:42;94304.81;;;30.24;61.49
39223;BME280;24936;46.328;11.026;2022-08-11T14:23:30;94305.84;;;30.53;61.50
39223;BME280;24936;46.328;11.026;2022-08-11T14:25:57;94303.13;;;30.34;61.62
39223;BME280;24936;46.328;11.026;2022-08-11T14:28:42;94307.59;;;29.92;64.17
39223;BME280;24936;46.328;11.026;2022-08-11T14:31:08;94308.84;;;29.58;62.00
39223;BME280;24936;46.328;11.026;2022-08-11T14:33:35;94301.34;;;29.85;61.80
39223;BME280;24936;46.328;11.026;2022-08-11T14:36:04;94296.50;;;30.18;64.97
39223;BME280;24936;46.328;11.026;2022-08-11T14:38:35;94291.28;;;30.28;63.88
39223;BME280;24936;46.328;11.026;2022-08-11T14:41:02;94292.97;;;29.85;71.12
39223;BME280;24936;46.328;11.026;2022-08-11T14:43:47;94287.97;;;29.97;65.23
39223;BME280;24936;46.328;11.026;2022-08-11T14:46:32;94294.13;;;30.09;58.46
39223;BME280;24936;46.328;11.026;2022-08-11T14:49:16;94285.03;;;30.22;68.62
39223;BME280;24936;46.328;11.026;2022-08-11T14:51:43;94283.13;;;29.98;59.22
39223;BME280;24936;46.328;11.026;2022-08-11T14:54:11;94276.66;;;29.38;61.55
39223;BME280;24936;46.328;11.026;2022-08-11T14:56:55;94284.50;;;29.59;54.45
39223;BME280;24936;46.328;11.026;2022-08-11T14:59:22;94281.44;;;29.76;58.18
39223;BME280;24936;46.328;11.026;2022-08-11T15:01:48;94277.22;;;29.88;50.25
39223;BME280;24936;46.328;11.026;2022-08-11T15:04:32;94276.50;;;29.50;55.31
39223;BME280;24936;46.328;11.026;2022-08-11T15:06:58;94276.41;;;29.74;60.19
39223;BME280;24936;46.328;11.026;2022-08-11T15:09:24;94262.72;;;29.90;62.11
39223;BME280;24936;46.328;11.026;2022-08-11T15:11:50;94276.28;;;29.67;61.63
39223;BME280;24936;46.328;11.026;2022-08-11T15:14:34;94284.72;;;29.93;67.43
39223;BME280;24936;46.328;11.026;2022-08-11T15:17:20;94273.22;;;29.83;74.01
39223;BME280;24936;46.328;11.026;2022-08-11T15:19:48;94271.34;;;30.05;58.87
39223;BME280;24936;46.328;11.026;2022-08-11T15:22:33;94273.28;;;30.10;55.35
39223;BME280;24936;46.328;11.026;2022-08-11T15:25:18;94260.47;;;30.20;58.26
39223;BME280;24936;46.328;11.026;2022-08-11T15:27:48;94267.97;;;30.25;52.43
39223;BME280;24936;46.328;11.026;2022-08-11T15:30:33;94270.13;;;29.87;55.21
39223;BME280;24936;46.328;11.026;2022-08-11T15:33:18;94263.72;;;30.05;59.64
39223;BME280;24936;46.328;11.026;2022-08-11T15:36:06;94266.69;;;29.43;65.69
39223;BME280;24936;46.328;11.026;2022-08-11T15:39:01;94258.28;;;28.86;75.22
39223;BME280;24936;46.328;11.026;2022-08-11T15:41:44;94270.78;;;28.55;70.17
39223;BME280;24936;46.328;11.026;2022-08-11T15:44:32;94255.97;;;28.17;68.80
39223;BME280;24936;46.328;11.026;2022-08-11T15:47:26;94253.81;;;28.59;86.77
39223;BME280;24936;46.328;11.026;2022-08-11T15:49:54;94254.97;;;27.90;87.36
39223;BME280;24936;46.328;11.026;2022-08-11T15:52:24;94247.59;;;27.57;90.30
39223;BME280;24936;46.328;11.026;2022-08-11T15:54:54;94245.25;;;27.31;91.45
39223;BME280;24936;46.328;11.026;2022-08-11T15:57:24;94249.38;;;27.13;99.07
39223;BME280;24936;46.328;11.026;2022-08-11T16:00:09;94246.13;;;27.03;100.00
39223;BME280;24936;46.328;11.026;2022-08-11T16:02:55;94243.44;;;26.81;100.00
39223;BME280;24936;46.328;11.026;2022-08-11T16:05:41;94248.59;;;26.60;100.00
39223;BME280;24936;46.328;11.026;2022-08-11T16:08:08;94242.31;;;26.31;100.00
39223;BME280;24936;46.328;11.026;2022-08-11T16:10:35;94240.53;;;26.39;100.00
39223;BME280;24936;46.328;11.026;2022-08-11T16:13:03;94244.88;;;26.18;100.00
39223;BME280;24936;46.328;11.026;2022-08-11T16:15:53;94244.91;;;26.07;100.00
39223;BME280;24936;46.328;11.026;2022-08-11T16:18:43;94245.16;;;25.92;100.00
39223;BME280;24936;46.328;11.026;2022-08-11T16:21:20;94252.97;;;25.93;100.00
39223;BME280;24936;46.328;11.026;2022-08-11T16:23:51;94243.66;;;25.85;100.00
39223;BME280;24936;46.328;11.026;2022-08-11T16:26:20;94246.66;;;25.93;100.00
39223;BME280;24936;46.328;11.026;2022-08-11T16:28:49;94240.63;;;25.83;100.00
39223;BME280;24936;46.328;11.026;2022-08-11T16:31:16;94250.19;;;25.76;100.00
39223;BME280;24936;46.328;11.026;2022-08-11T16:33:43;94251.19;;;25.90;100.00
39223;BME280;24936;46.328;11.026;2022-08-11T16:36:12;94242.63;;;25.94;100.00
39223;BME280;24936;46.328;11.026;2022-08-11T16:38:57;94240.38;;;25.92;100.00
39223;BME280;24936;46.328;11.026;2022-08-11T16:41:27;94241.66;;;25.80;100.00
39223;BME280;24936;46.328;11.026;2022-08-11T16:44:14;94246.16;;;25.94;100.00
39223;BME280;24936;46.328;11.026;2022-08-11T16:46:59;94245.66;;;25.90;100.00
39223;BME280;24936;46.328;11.026;2022-08-11T16:49:30;94249.44;;;25.82;100.00
39223;BME280;24936;46.328;11.026;2022-08-11T16:51:56;94252.97;;;25.82;100.00
39223;BME280;24936;46.328;11.026;2022-08-11T16:54:22;94246.16;;;25.66;100.00
39223;BME280;24936;46.328;11.026;2022-08-11T16:56:52;94252.44;;;25.61;100.00
39223;BME280;24936;46.328;11.026;2022-08-11T16:59:36;94251.69;;;25.49;100.00
39223;BME280;24936;46.328;11.026;2022-08-11T17:02:15;94243.38;;;25.38;100.00
39223;BME280;24936;46.328;11.026;2022-08-11T17:05:01;94244.59;;;25.37;100.00
39223;BME280;24936;46.328;11.026;2022-08-11T17:07:46;94250.66;;;25.30;100.00
39223;BME280;24936;46.328;11.026;2022-08-11T17:10:50;94249.63;;;25.27;100.00